createdAt,value
2019-03-23T00:07:47.345Z,12.70
2019-03-23T00:18:30.776Z,20.80
2019-03-23T00:29:11.423Z,19.80
2019-03-23T00:39:52.133Z,19.50
2019-03-23T00:50:36.303Z,13.20
2019-03-23T01:01:18.882Z,17.30
2019-03-23T01:11:58.528Z,15.50
2019-03-23T01:22:43.231Z,17.60
2019-03-23T01:33:26.939Z,19.20
2019-03-23T01:44:10.914Z,24.90
2019-03-23T01:54:53.015Z,32.20
2019-03-23T02:05:37.296Z,23.80
2019-03-23T02:16:21.359Z,22.40
2019-03-23T02:27:04.725Z,33.70
2019-03-23T02:37:46.489Z,32.30
2019-03-23T02:48:31.688Z,25.00
2019-03-23T02:59:12.445Z,34.30
2019-03-23T03:09:55.610Z,33.60
2019-03-23T03:20:40.046Z,38.10
2019-03-23T03:31:24.831Z,39.10
2019-03-23T03:42:07.461Z,35.10
2019-03-23T03:52:52.688Z,43.80
2019-03-23T04:03:35.957Z,41.30
2019-03-23T04:14:18.333Z,45.60
2019-03-23T04:25:01.216Z,50.50
2019-03-23T04:35:43.209Z,48.60
2019-03-23T04:46:26.724Z,52.00
2019-03-23T04:57:09.615Z,75.90
2019-03-23T05:07:53.680Z,179.70
2019-03-23T05:18:39.214Z,286.80
2019-03-23T05:29:24.804Z,400.90
2019-03-23T05:40:08.746Z,369.00
2019-03-23T05:50:49.588Z,403.70
2019-03-23T06:01:34.327Z,409.90
2019-03-23T06:12:17.762Z,313.80
2019-03-23T06:23:02.087Z,295.10
2019-03-23T06:33:42.794Z,301.00
2019-03-23T06:44:25.090Z,294.00
2019-03-23T06:55:07.527Z,260.40
2019-03-23T07:05:49.029Z,199.10
2019-03-23T07:16:32.456Z,191.10
2019-03-23T07:27:11.877Z,187.50
2019-03-23T07:37:48.237Z,178.90
2019-03-23T07:48:33.517Z,203.00
2019-03-23T07:59:16.652Z,209.40
2019-03-23T08:10:00.934Z,222.40
2019-03-23T08:20:44.248Z,224.50
2019-03-23T08:31:21.908Z,224.90
2019-03-23T08:42:02.999Z,160.20
2019-03-23T08:52:47.279Z,158.70
2019-03-23T09:03:35.948Z,160.00
2019-03-23T09:14:04.595Z,155.00
2019-03-23T09:24:45.977Z,164.70
2019-03-23T09:35:25.541Z,175.60
2019-03-23T09:46:08.547Z,155.90
2019-03-23T09:56:52.261Z,167.20
2019-03-23T10:07:36.602Z,177.00
2019-03-23T10:18:20.595Z,158.10
2019-03-23T10:29:06.376Z,160.20
2019-03-23T10:39:50.017Z,160.40
2019-03-23T10:50:32.589Z,124.70
2019-03-23T11:01:17.082Z,116.60
2019-03-23T11:12:01.011Z,131.80
2019-03-23T11:22:42.453Z,152.60
2019-03-23T11:33:27.145Z,137.90
2019-03-23T11:44:04.424Z,130.00
2019-03-23T11:54:43.640Z,118.40
2019-03-23T12:05:24.981Z,140.40
2019-03-23T12:16:01.896Z,143.90
2019-03-23T12:26:39.159Z,112.70
2019-03-23T12:37:17.412Z,106.00
2019-03-23T12:47:51.178Z,107.30
2019-03-23T12:58:24.559Z,113.30
2019-03-23T13:09:00.660Z,134.60
2019-03-23T13:19:34.935Z,137.60
2019-03-23T13:30:14.165Z,128.30
2019-03-23T13:40:50.973Z,126.40
2019-03-23T13:51:33.672Z,129.50
2019-03-23T14:02:08.376Z,132.90
2019-03-23T14:12:49.824Z,126.10
2019-03-23T14:23:34.286Z,134.70
2019-03-23T14:34:17.610Z,132.70
2019-03-23T14:44:54.850Z,127.30
2019-03-23T14:55:37.855Z,147.20
2019-03-23T15:06:22.576Z,110.10
2019-03-23T15:17:05.878Z,108.10
2019-03-23T15:27:51.254Z,108.60
2019-03-23T15:38:33.606Z,101.20
2019-03-23T15:49:18.129Z,110.70
2019-03-23T16:00:02.683Z,110.80
2019-03-23T16:10:41.228Z,105.40
2019-03-23T16:21:21.526Z,102.10
2019-03-23T16:31:56.728Z,108.10
2019-03-23T16:42:31.450Z,105.30
2019-03-23T16:53:13.601Z,99.00
2019-03-23T17:03:53.636Z,105.60
2019-03-23T17:14:34.963Z,101.60
2019-03-23T17:25:16.493Z,106.70
2019-03-23T17:35:57.216Z,97.30
2019-03-23T17:46:38.375Z,97.60
2019-03-23T17:57:12.652Z,105.00
2019-03-23T18:07:47.279Z,102.50
2019-03-23T18:18:18.040Z,102.80
2019-03-23T18:28:56.652Z,117.20
2019-03-23T18:39:36.276Z,159.40
2019-03-23T18:50:17.030Z,126.80
2019-03-23T19:00:51.986Z,115.90
2019-03-23T19:11:32.778Z,123.00
2019-03-23T19:22:09.936Z,122.20
2019-03-23T19:32:52.722Z,126.00
2019-03-23T19:43:33.231Z,126.00
2019-03-23T19:54:12.859Z,122.50
2019-03-23T20:04:52.471Z,127.90
2019-03-23T20:15:28.884Z,129.50
2019-03-23T20:26:10.514Z,117.20
2019-03-23T20:36:47.316Z,125.60
2019-03-23T20:47:22.311Z,123.00
2019-03-23T20:57:54.158Z,126.30
2019-03-23T21:08:33.040Z,120.40
2019-03-23T21:19:11.501Z,114.60
2019-03-23T21:29:49.630Z,117.30
2019-03-23T21:40:27.901Z,123.40
2019-03-23T21:51:08.922Z,116.00
2019-03-23T22:01:50.374Z,115.60
2019-03-23T22:12:30.712Z,115.40
2019-03-23T22:23:10.529Z,124.50
2019-03-23T22:33:51.815Z,129.80
2019-03-23T22:44:36.145Z,122.30
2019-03-23T22:55:18.171Z,123.90
2019-03-23T23:05:54.591Z,132.10
2019-03-23T23:16:37.272Z,140.70
2019-03-23T23:27:21.984Z,116.40
2019-03-23T23:38:06.579Z,128.20
2019-03-23T23:48:51.506Z,121.10
2019-03-23T23:59:34.060Z,147.40
